Cesar Lim Rodriguez Airport


Codes: RPSD/RZP
Name: Cesar Lim Rodriguez Airport
City: Taytay Airport, Sandoval Airport
Country: Philippines
Elevation: 80 ft.
Wikipedia:

Photos at Cesar Lim Rodriguez Airport


   Photos courtesy of SpottingLog. You can add your own sightings and photos by signing up for a free trial today.



No photos found.

Weather at Cesar Lim Rodriguez Airport


Time (UTC)DescriptionTempratureWindCloud coverageVisibilityPressureHumidity
16-Jun-2024 00:00Overcast Clouds27°C2 mph, S100%10000m1010hPa78%
16-Jun-2024 03:00Light Rain28°C4 mph, S100%10000m1010hPa73%
16-Jun-2024 06:00Light Rain29°C2 mph, SW100%10000m1009hPa68%
16-Jun-2024 09:00Light Rain29°C4 mph, NW98%10000m1008hPa73%
16-Jun-2024 12:00Overcast Clouds27°C2 mph, NW88%10000m1009hPa81%
16-Jun-2024 15:00Broken Clouds26°C2 mph, SW73%10000m1010hPa84%
16-Jun-2024 18:00Light Rain26°C2 mph, W87%10000m1009hPa83%
16-Jun-2024 21:00Light Rain26°C0 mph, SW99%10000m1009hPa85%
17-Jun-2024 00:00Light Rain28°C2 mph, S100%10000m1010hPa74%
17-Jun-2024 03:00Light Rain30°C4 mph, SE100%10000m1010hPa62%
17-Jun-2024 06:00Light Rain31°C4 mph, NE100%10000m1008hPa61%
17-Jun-2024 09:00Light Rain28°C0 mph, N100%10000m1008hPa80%
17-Jun-2024 12:00Overcast Clouds27°C2 mph, SW100%10000m1009hPa84%
17-Jun-2024 15:00Light Rain26°C2 mph, SW92%10000m1011hPa89%
17-Jun-2024 18:00Light Rain25°C2 mph, SW83%10000m1009hPa88%
17-Jun-2024 21:00Light Rain25°C2 mph, W100%10000m1009hPa87%
18-Jun-2024 00:00Light Rain27°C0 mph, NE100%10000m1010hPa84%
18-Jun-2024 03:00Light Rain29°C2 mph, SW100%10000m1009hPa71%
18-Jun-2024 06:00Moderate Rain29°C2 mph, W92%10000m1008hPa71%
18-Jun-2024 09:00Light Rain28°C0 mph, SW90%10000m1007hPa74%
18-Jun-2024 12:00Light Rain26°C0 mph, SW87%10000m1009hPa82%
18-Jun-2024 15:00Light Rain25°C2 mph, W96%10000m1010hPa85%
18-Jun-2024 18:00Light Rain25°C2 mph, SW97%10000m1008hPa87%
18-Jun-2024 21:00Overcast Clouds25°C2 mph, SW95%10000m1008hPa87%
19-Jun-2024 00:00Overcast Clouds28°C0 mph, SW97%10000m1009hPa76%
19-Jun-2024 03:00Light Rain30°C4 mph, E95%10000m1009hPa66%
19-Jun-2024 06:00Moderate Rain29°C2 mph, SE97%10000m1007hPa72%
19-Jun-2024 09:00Moderate Rain28°C2 mph, SE99%10000m1006hPa80%
19-Jun-2024 12:00Light Rain26°C2 mph, S99%10000m1008hPa85%
19-Jun-2024 15:00Light Rain25°C2 mph, SW97%10000m1009hPa86%
19-Jun-2024 18:00Light Rain25°C2 mph, SW98%10000m1007hPa87%
19-Jun-2024 21:00Light Rain25°C2 mph, SW79%10000m1007hPa87%
20-Jun-2024 00:00Light Rain27°C0 mph, S84%10000m1009hPa78%
20-Jun-2024 03:00Light Rain26°C7 mph, NE100%10000m1009hPa88%
20-Jun-2024 06:00Light Rain25°C2 mph, W100%10000m1008hPa88%
20-Jun-2024 09:00Overcast Clouds27°C2 mph, SW100%10000m1007hPa76%
20-Jun-2024 12:00Overcast Clouds25°C2 mph, SW100%10000m1009hPa85%
20-Jun-2024 15:00Overcast Clouds25°C2 mph, SW89%10000m1010hPa84%
20-Jun-2024 18:00Broken Clouds24°C2 mph, SW57%10000m1008hPa84%
20-Jun-2024 21:00Scattered Clouds24°C0 mph, SW38%10000m1008hPa82%